Daily Tabular Data
[Select Refresh to Update]


12/11/18
Time         Wind Dir   Wind Spd  Wind Gust     Hum In   Humidity    Temp In       Temp  Raw Barom   Tot Rain Wind Chill Heat Ix In Heat Index  Dew Point  DailyRain   HourRain   RainRate
                            mph        mph          %          %         F         F         in         in         F         F         F         F         in         in      in/hr
12:00am           215          0          0         51         89       67.9       55.0      29.19       3.30       55.0       68.8       60.5       51.8       0.00       0.00      0.000
12:30am           180          2          3         51         90       67.9       54.5      29.18       3.30       54.5       68.8       60.1       51.6       0.00       0.00      0.000
1:00am            179          0          4         50         86       67.9       55.1      29.18       3.30       55.1       68.7       60.2       51.0       0.00       0.00      0.000
1:30am            182          4          4         49         86       67.8       54.1      29.18       3.30       53.6       68.5       59.2       50.0       0.00       0.00      0.000
2:00am            195          0          5         50         79       67.7       54.7      29.18       3.30       54.7       68.5       58.8       48.3       0.00       0.00      0.000
2:30am             36          2          2         50         79       67.6       54.0      29.18       3.30       54.0       68.4       58.1       47.6       0.00       0.00      0.000
3:00am             44          0          2         50         84       67.6       53.3      29.17       3.30       53.3       68.4       58.1       48.6       0.00       0.00      0.000
3:30am             45          0          0         49         81       67.4       53.4      29.17       3.30       53.4       68.1       57.8       47.7       0.00       0.00      0.000
4:00am            132          0          1         49         82       67.3       53.2      29.17       3.30       53.2       68.0       57.7       47.9       0.00       0.00      0.000
4:30am            152          0          1         49         85       67.3       51.8      29.17       3.30       51.8       68.0       56.7       47.4       0.00       0.00      0.000
5:00am            153          0          0         49         86       67.2       53.5      29.17       3.30       53.5       67.9       58.6       49.4       0.00       0.00      0.000
5:30am            175          0          0         49         89       67.1       53.8      29.17       3.30       53.8       67.8       59.3       50.6       0.00       0.00      0.000
6:00am            167          3          3         49         86       67.0       53.5      29.17       3.30       53.5       67.7       58.6       49.4       0.00       0.00      0.000
6:30am            172          0          3         49         88       66.8       51.4      29.18       3.30       51.4       67.5       56.7       48.0       0.00       0.00      0.000
7:00am            161          0          0         49         89       66.7       52.2      29.18       3.30       52.2       67.4       57.7       49.1       0.00       0.00      0.000
7:30am            180          0          0         49         87       66.7       53.7      29.18       3.30       53.7       67.4       58.9       49.9       0.00       0.00      0.000
8:00am            174          0          0         49         88       66.6       54.0      29.19       3.30       54.0       67.3       59.3       50.5       0.00       0.00      0.000
8:30am            167          0          0         49         78       66.5       56.1      29.20       3.30       56.1       67.2       60.1       49.3       0.00       0.00      0.000
9:00am            167          1          3         49         78       66.5       57.8      29.20       3.30       57.8       67.2       61.8       51.0       0.00       0.00      0.000
9:30am            171          1          6         49         78       66.6       60.4      29.20       3.30       60.4       67.3       64.4       53.5       0.00       0.00      0.000
10:00am           298          1          5         48         55       66.9       65.4      29.21       3.30       65.4       67.5       66.7       48.8       0.00       0.00      0.000
10:30am           288          0          7         49         69       67.0       61.8      29.21       3.30       61.8       67.7       64.6       51.5       0.00       0.00      0.000
11:00am           350          0          5         48         67       67.0       63.9      29.20       3.30       63.9       67.6       66.5       52.7       0.00       0.00      0.000
11:30am           348          1          7         49         60       67.0       64.9      29.19       3.30       64.9       67.7       66.7       50.7       0.00       0.00      0.000
12:00pm           310          0          5         49         63       67.1       65.4      29.18       3.30       65.4       67.8       67.5       52.5       0.00       0.00      0.000
12:30pm             9          7          9         49         56       67.2       66.4      29.17       3.30       66.4       67.9       67.8       50.2       0.00       0.00      0.000
1:00pm            311          2          8         49         56       67.4       66.4      29.16       3.30       66.4       68.1       67.8       50.2       0.00       0.00      0.000
1:30pm            311          0          8         49         64       67.5       65.9      29.16       3.30       65.9       68.2       68.2       53.4       0.00       0.00      0.000
2:00pm             24          3          7         49         61       67.7       66.3      29.15       3.30       66.3       68.4       68.2       52.5       0.00       0.00      0.000
2:30pm             17          2          8         49         61       67.8       67.0      29.14       3.30       67.0       68.5       68.9       53.1       0.00       0.00      0.000
3:00pm            301          0          7         49         70       68.0       67.4      29.14       3.30       67.4       68.7       70.4       57.3       0.00       0.00      0.000
3:30pm              9          3          8         49         68       68.1       65.5      29.15       3.30       65.5       68.8       68.2       54.7       0.00       0.00      0.000
4:00pm            343          4          8         49         71       68.2       64.5      29.15       3.30       64.5       68.9       67.6       54.9       0.00       0.00      0.000
4:30pm             10          0          5         50         76       68.2       63.6      29.16       3.30       63.6       69.0       67.3       55.9       0.00       0.00      0.000
5:00pm            355          2          5         50         80       68.2       60.9      29.17       3.30       60.9       69.0       65.1       54.7       0.00       0.00      0.000
5:30pm            298          0          2         51         84       68.3       59.0      29.18       3.30       59.0       69.2       63.8       54.2       0.00       0.00      0.000
6:00pm             28          0          2         50         87       68.3       58.5      29.19       3.30       58.5       69.1       63.7       54.7       0.00       0.00      0.000
6:30pm            350          3          3         50         87       68.3       57.9      29.20       3.30       57.9       69.1       63.1       54.1       0.00       0.00      0.000
7:00pm             36          0          3         51         91       68.4       59.2      29.21       3.30       59.2       69.3       65.0       56.6       0.00       0.00      0.000
7:30pm             35          0          2         50         90       68.3       57.4      29.22       3.30       57.4       69.1       63.0       54.5       0.00       0.00      0.000
8:00pm             36          0          1         50         91       68.4       55.7      29.22       3.30       55.7       69.2       61.5       53.1       0.00       0.00      0.000
8:30pm             46          0          0         50         91       68.3       55.0      29.22       3.30       55.0       69.1       60.8       52.4       0.00       0.00      0.000
9:00pm            165          0          2         50         95       68.3       59.5      29.23       3.30       59.5       69.1       65.9       58.1       0.00       0.00      0.000
9:30pm            168          0          2         50         89       68.3       54.9      29.24       3.30       54.9       69.1       60.4       51.7       0.00       0.00      0.000
10:00pm           172          0          4         50         92       68.2       54.0      29.24       3.30       54.0       69.0       59.9       51.7       0.00       0.00      0.000
10:30pm           153          0          0         49         91       68.1       53.4      29.25       3.30       53.4       68.8       59.2       50.8       0.00       0.00      0.000
11:00pm           207          2          3         50         91       68.0       53.3      29.23       3.30       53.3       68.8       59.1       50.7       0.00       0.00      0.000
11:30pm           170          2          6         50         93       68.0       52.9      29.24       3.30       52.9       68.8       59.0       50.9       0.00       0.00      0.000